Time;durP1;ratioP1;P1;durP2;ratioP2;P2;SDS_P1;SDS_P2;PMS_P1;PMS_P2;Temp;Humidity;BMP_temperature;BMP_pressure;BME280_temperature;BME280_humidity;BME280_pressure;Samples;Min_cycle;Max_cycle;Signal;HPM_P1;HPM_P2
2020/12/07 10:25:52;;;;;;;2.25;1.50;;;4.90;97.20;;;;;;4907261;27;864598;-71
2020/12/07 10:28:21;;;;;;;2.35;2.03;;;5.00;98.00;;;;;;5074111;28;20040;-72
2020/12/07 10:30:48;;;;;;;2.28;1.83;;;5.20;98.00;;;;;;5074032;28;20119;-72
2020/12/07 10:33:14;;;;;;;3.03;1.50;;;5.50;98.00;;;;;;5074161;28;20108;-72
2020/12/07 10:35:44;;;;;;;2.45;1.05;;;5.90;98.00;;;;;;5073913;28;20103;-72
2020/12/07 10:38:10;;;;;;;2.20;1.60;;;6.40;96.70;;;;;;5073979;28;20051;-72
2020/12/07 10:40:35;;;;;;;2.55;1.70;;;6.50;94.80;;;;;;5073853;28;20459;-72
2020/12/07 10:43:01;;;;;;;3.13;1.95;;;6.60;95.00;;;;;;5073796;28;20061;-72
2020/12/07 10:45:27;;;;;;;3.15;2.13;;;6.60;95.20;;;;;;5072595;28;20064;-73
2020/12/07 10:47:53;;;;;;;1.67;1.45;;;6.60;95.00;;;;;;5073937;28;20048;-73
2020/12/07 10:50:19;;;;;;;3.40;1.80;;;6.50;94.20;;;;;;5073640;28;20025;-73
2020/12/07 10:52:45;;;;;;;2.65;1.70;;;6.50;94.20;;;;;;5073824;28;20424;-73
2020/12/07 10:55:11;;;;;;;2.95;2.38;;;6.40;94.80;;;;;;5073996;28;20025;-72
2020/12/07 10:57:37;;;;;;;2.47;1.85;;;6.40;94.50;;;;;;5073642;28;20025;-72
2020/12/07 11:00:07;;;;;;;3.53;2.13;;;6.30;95.20;;;;;;5073430;28;20079;-73
2020/12/07 11:02:33;;;;;;;2.90;2.33;;;6.20;95.60;;;;;;5073932;28;20025;-73
2020/12/07 11:04:59;;;;;;;3.33;2.00;;;6.10;95.80;;;;;;5073271;28;20072;-73
2020/12/07 11:07:26;;;;;;;4.68;2.40;;;6.10;96.40;;;;;;5072251;28;20470;-73
2020/12/07 11:09:52;;;;;;;3.60;2.38;;;6.10;96.30;;;;;;5073273;28;20017;-72
2020/12/07 11:12:21;;;;;;;3.53;2.53;;;6.10;96.20;;;;;;5073196;28;20520;-73
2020/12/07 11:14:47;;;;;;;2.83;2.17;;;6.20;95.90;;;;;;5073081;28;20062;-73
2020/12/07 11:17:12;;;;;;;3.10;2.60;;;6.10;96.20;;;;;;5073089;28;20485;-73
2020/12/07 11:19:42;;;;;;;3.80;2.38;;;6.10;96.50;;;;;;5073259;28;20051;-73
2020/12/07 11:22:08;;;;;;;3.03;2.60;;;6.10;96.50;;;;;;5073056;28;20017;-73
2020/12/07 11:24:33;;;;;;;5.43;3.85;;;6.10;96.40;;;;;;5071490;28;20051;-73
2020/12/07 11:26:59;;;;;;;7.38;3.92;;;6.10;96.20;;;;;;5072080;28;20036;-73
2020/12/07 11:29:25;;;;;;;6.82;3.83;;;6.10;96.50;;;;;;5072879;28;20105;-73
2020/12/07 11:31:50;;;;;;;3.22;2.28;;;6.20;96.70;;;;;;5072776;28;20025;-73
2020/12/07 11:34:19;;;;;;;3.33;2.22;;;6.30;95.90;;;;;;5072627;28;20086;-73
2020/12/07 11:36:47;;;;;;;4.20;2.97;;;6.70;94.60;;;;;;5060220;28;20071;-72
2020/12/07 11:44:19;;;;;;;3.40;2.08;;;9.10;86.10;;;;;;5059728;28;20087;-73
2020/12/07 11:46:51;;;;;;;2.28;0.80;;;9.30;81.40;;;;;;5059634;28;20032;-73
2020/12/07 11:49:20;;;;;;;2.00;0.90;;;8.80;76.70;;;;;;5059336;28;20367;-73
2020/12/07 11:51:48;;;;;;;2.15;1.80;;;8.20;81.90;;;;;;5058133;28;20041;-73
2020/12/07 11:54:14;;;;;;;3.58;2.13;;;8.70;83.60;;;;;;5059446;28;20032;-73
2020/12/07 11:56:40;;;;;;;3.60;1.90;;;9.40;83.60;;;;;;5059111;28;20025;-73
2020/12/07 11:59:07;;;;;;;3.28;1.50;;;10.10;81.60;;;;;;5059102;28;20294;-73
2020/12/07 12:01:33;;;;;;;2.95;1.63;;;10.40;78.40;;;;;;5059018;28;20020;-73
2020/12/07 12:04:00;;;;;;;1.98;1.20;;;10.40;78.90;;;;;;5058877;28;20033;-73
2020/12/07 12:06:29;;;;;;;1.92;1.08;;;10.40;78.00;;;;;;5058924;28;20032;-73
2020/12/07 12:08:55;;;;;;;2.05;1.10;;;10.40;77.10;;;;;;5059134;28;20409;-73
2020/12/07 12:11:30;;;;;;;0.73;0.45;;;10.10;77.40;;;;;;5058865;28;20025;-73
2020/12/07 12:13:58;;;;;;;1.23;0.53;;;10.30;77.80;;;;;;5059047;28;20416;-73
2020/12/07 12:16:27;;;;;;;2.50;0.20;;;10.40;75.90;;;;;;5057706;28;20430;-73
2020/12/07 12:18:56;;;;;;;0.70;0.40;;;10.10;71.50;;;;;;5058789;28;20481;-73
2020/12/07 12:21:24;;;;;;;2.33;0.40;;;9.50;73.10;;;;;;5058573;28;20039;-73
2020/12/07 12:23:50;;;;;;;2.33;0.40;;;9.00;78.10;;;;;;5060218;28;20378;-73
2020/12/07 12:26:19;;;;;;;1.55;0.30;;;8.90;78.50;;;;;;5078605;28;20028;-73
2020/12/07 12:28:45;;;;;;;0.70;0.38;;;9.10;73.40;;;;;;5079170;28;20469;-73
2020/12/07 12:31:11;;;;;;;1.05;0.30;;;8.80;67.30;;;;;;5078530;28;20024;-73
2020/12/07 12:33:36;;;;;;;0.40;0.20;;;8.50;73.00;;;;;;5078417;28;20021;-73
2020/12/07 12:36:03;;;;;;;2.03;0.60;;;8.20;72.30;;;;;;5078398;28;20304;-73
2020/12/07 12:38:29;;;;;;;2.22;0.30;;;7.90;82.10;;;;;;5078642;28;20066;-72
2020/12/07 12:40:54;;;;;;;0.63;0.30;;;7.50;83.20;;;;;;5078460;28;20032;-72
2020/12/07 12:43:29;;;;;;;0.50;0.30;;;7.30;75.90;;;;;;5078174;28;20407;-72
2020/12/07 12:45:54;;;;;;;0.60;0.28;;;7.10;82.00;;;;;;5078139;28;20025;-72
2020/12/07 12:48:20;;;;;;;0.43;0.20;;;7.20;81.30;;;;;;5077387;28;20358;-72
2020/12/07 12:50:46;;;;;;;0.90;0.50;;;7.50;83.80;;;;;;5078093;28;20020;-72
2020/12/07 12:53:11;;;;;;;1.67;0.40;;;7.70;76.60;;;;;;5078030;28;20024;-72
2020/12/07 12:55:37;;;;;;;1.52;0.50;;;7.90;74.90;;;;;;5077919;28;20036;-72
2020/12/07 12:58:03;;;;;;;1.00;0.60;;;7.90;76.30;;;;;;5078133;28;20099;-72
2020/12/07 13:00:28;;;;;;;0.95;0.50;;;7.90;73.90;;;;;;5077875;28;20025;-72
2020/12/07 13:02:54;;;;;;;1.10;0.63;;;7.90;78.20;;;;;;5077850;28;20431;-72
2020/12/07 13:05:20;;;;;;;4.80;0.77;;;7.80;74.20;;;;;;5077653;28;20084;-72
2020/12/07 13:07:45;;;;;;;2.15;0.70;;;7.90;72.40;;;;;;5077798;28;20320;-72
2020/12/07 13:10:11;;;;;;;2.75;0.60;;;7.70;79.50;;;;;;5077726;28;20052;-72
2020/12/07 13:12:39;;;;;;;3.75;0.80;;;7.70;80.90;;;;;;5077648;28;20016;-72
2020/12/07 13:15:05;;;;;;;1.83;0.80;;;7.60;73.50;;;;;;5077526;28;20028;-72
2020/12/07 13:17:35;;;;;;;1.50;0.60;;;7.40;73.90;;;;;;5077628;28;20025;-72
2020/12/07 13:20:04;;;;;;;2.13;0.98;;;7.30;79.20;;;;;;5077543;28;20055;-72
2020/12/07 13:22:48;;;;;;;2.50;0.75;;;7.30;75.60;;;;;;5059758;28;20500;-73
2020/12/07 13:25:21;;;;;;;2.63;0.60;;;7.30;80.40;;;;;;5077044;28;20404;-72
2020/12/07 13:28:10;;;;;;;0.70;0.47;;;7.20;77.10;;;;;;5059678;28;20301;-72
2020/12/07 13:30:36;;;;;;;2.17;0.80;;;7.00;82.30;;;;;;5077431;28;20016;-73
2020/12/07 13:33:02;;;;;;;1.42;0.77;;;6.90;83.30;;;;;;5077260;28;20047;-72
2020/12/07 13:35:30;;;;;;;1.65;0.80;;;6.80;82.40;;;;;;5077219;28;20074;-72
2020/12/07 13:37:56;;;;;;;1.23;0.55;;;6.70;84.30;;;;;;5077540;28;20032;-72
2020/12/07 13:40:21;;;;;;;1.25;0.80;;;6.70;86.50;;;;;;5077173;28;20024;-72
2020/12/07 13:42:47;;;;;;;2.40;1.00;;;6.70;84.30;;;;;;5077096;28;20059;-72
2020/12/07 13:45:13;;;;;;;6.22;0.90;;;6.70;85.60;;;;;;5076925;28;20032;-72
2020/12/07 13:47:39;;;;;;;3.03;1.27;;;6.60;86.60;;;;;;5077081;28;20025;-72
2020/12/07 13:50:05;;;;;;;2.58;1.23;;;6.50;87.10;;;;;;5077018;28;20027;-72
2020/12/07 13:52:30;;;;;;;2.08;1.30;;;6.40;85.40;;;;;;5076996;28;20069;-72
2020/12/07 13:54:56;;;;;;;2.53;1.50;;;6.20;86.60;;;;;;5077323;28;20037;-72
2020/12/07 13:57:22;;;;;;;3.95;2.20;;;6.10;86.50;;;;;;5059218;28;20121;-72
2020/12/07 13:59:47;;;;;;;3.45;2.53;;;6.20;82.10;;;;;;5076616;28;20039;-72
2020/12/07 14:02:13;;;;;;;4.30;2.58;;;6.10;84.40;;;;;;5077460;28;20320;-72
2020/12/07 14:07:05;;;;;;;4.05;2.92;;;5.80;87.70;;;;;;5077114;28;20189;-72
2020/12/07 14:09:30;;;;;;;3.97;2.92;;;5.70;88.40;;;;;;5076851;28;20028;-72
2020/12/07 14:11:56;;;;;;;4.47;3.25;;;5.60;90.90;;;;;;5076768;28;20099;-72
2020/12/07 14:14:24;;;;;;;3.80;2.90;;;5.50;90.10;;;;;;5077089;28;20035;-72
2020/12/07 14:17:03;;;;;;;5.43;3.78;;;5.50;91.80;;;;;;5076788;28;20315;-72
2020/12/07 14:19:37;;;;;;;6.68;4.57;;;5.50;91.20;;;;;;5076664;28;20048;-72
2020/12/07 14:22:23;;;;;;;5.15;3.20;;;5.40;92.00;;;;;;5076822;28;20074;-72
2020/12/07 14:40:17;;;;;;;4.28;3.15;;;5.30;93.60;;;;;;5076843;28;20047;-72
2020/12/07 14:42:42;;;;;;;5.05;3.30;;;5.10;94.20;;;;;;5076745;28;20017;-72
2020/12/07 14:45:17;;;;;;;5.05;3.30;;;5.00;94.70;;;;;;5076286;28;20039;-72
2020/12/07 14:47:46;;;;;;;3.75;2.83;;;4.80;94.80;;;;;;5076754;28;20315;-72
2020/12/07 14:52:40;;;;;;;3.40;2.58;;;4.90;93.40;;;;;;5076685;28;20025;-72
2020/12/07 14:55:14;;;;;;;3.60;2.50;;;5.00;93.90;;;;;;5076192;28;20083;-73
2020/12/07 14:58:16;;;;;;;3.70;2.53;;;4.90;93.90;;;;;;5076504;28;20404;-72
2020/12/07 15:01:00;;;;;;;4.20;2.28;;;4.90;94.20;;;;;;5075650;28;20059;-72
2020/12/07 15:05:58;;;;;;;4.55;2.58;;;5.00;94.80;;;;;;5076194;28;20044;-72
2020/12/07 15:16:20;;;;;;;2.25;1.60;;;5.10;93.70;;;;;;5079927;28;20032;-73
2020/12/07 15:18:46;;;;;;;2.80;2.03;;;5.10;92.30;;;;;;5079988;28;20039;-73
2020/12/07 15:21:12;;;;;;;2.95;1.52;;;5.10;93.10;;;;;;5079811;28;20087;-73
2020/12/07 15:23:39;;;;;;;1.98;1.48;;;5.10;92.30;;;;;;5079458;28;20390;-73
2020/12/07 15:26:05;;;;;;;2.20;1.20;;;4.80;88.40;;;;;;5079774;28;20033;-73
2020/12/07 15:28:32;;;;;;;3.67;1.27;;;4.80;83.50;;;;;;5079765;28;20024;-72
2020/12/07 15:31:01;;;;;;;2.75;1.55;;;4.80;84.70;;;;;;5079556;28;20048;-72
2020/12/07 15:33:27;;;;;;;1.20;0.73;;;4.70;89.30;;;;;;5079551;28;20016;-72
2020/12/07 15:35:53;;;;;;;1.95;1.10;;;4.60;89.40;;;;;;5079460;28;20074;-72
2020/12/07 15:38:19;;;;;;;3.08;1.20;;;4.60;92.60;;;;;;5079548;28;20427;-72
2020/12/07 15:40:45;;;;;;;1.60;1.05;;;4.60;92.00;;;;;;5079453;28;20025;-72
2020/12/07 15:43:13;;;;;;;3.15;1.10;;;4.50;91.10;;;;;;5079489;28;20020;-72
2020/12/07 15:45:40;;;;;;;2.20;0.70;;;4.50;93.80;;;;;;5061523;28;20028;-72
2020/12/07 15:48:06;;;;;;;2.50;1.30;;;4.50;92.00;;;;;;5061649;28;20080;-72
2020/12/07 15:50:34;;;;;;;2.80;1.17;;;4.50;93.40;;;;;;5061530;28;20048;-72
2020/12/07 15:52:59;;;;;;;3.25;1.30;;;4.50;92.40;;;;;;5079384;28;20025;-72
2020/12/07 15:55:25;;;;;;;1.77;0.85;;;4.50;92.60;;;;;;5079096;28;20043;-72
2020/12/07 15:57:54;;;;;;;1.42;0.95;;;4.50;90.10;;;;;;5079202;28;20424;-72
2020/12/07 16:00:19;;;;;;;1.25;0.85;;;4.50;90.40;;;;;;5079263;28;20033;-72
2020/12/07 16:02:45;;;;;;;1.77;0.95;;;4.60;90.70;;;;;;5079348;28;20025;-72
2020/12/07 16:05:11;;;;;;;1.42;0.60;;;4.60;91.00;;;;;;5078914;28;20108;-72
2020/12/07 16:07:37;;;;;;;1.25;0.73;;;4.60;90.70;;;;;;5079040;28;20024;-72
2020/12/07 16:10:02;;;;;;;1.70;0.90;;;4.60;91.20;;;;;;5078943;28;20025;-72
2020/12/07 16:12:33;;;;;;;1.88;0.60;;;4.60;90.20;;;;;;5079046;28;20020;-72
2020/12/07 16:14:59;;;;;;;1.35;0.60;;;4.70;86.10;;;;;;5078830;28;20055;-72
2020/12/07 16:17:27;;;;;;;1.20;0.47;;;4.90;85.50;;;;;;5079148;28;20032;-72
2020/12/07 16:19:53;;;;;;;0.65;0.35;;;4.90;88.50;;;;;;5061055;28;20145;-72
2020/12/07 16:22:19;;;;;;;1.98;0.65;;;4.90;88.50;;;;;;5078574;28;20024;-72
2020/12/07 16:24:45;;;;;;;3.78;1.00;;;4.90;84.60;;;;;;5057171;28;20111;-72
2020/12/07 16:27:10;;;;;;;5.10;0.73;;;5.00;85.50;;;;;;5058804;28;20425;-72
2020/12/07 16:29:36;;;;;;;1.20;0.75;;;5.00;89.50;;;;;;5058589;28;20025;-72
2020/12/07 16:32:07;;;;;;;3.83;0.88;;;5.00;88.60;;;;;;5058533;28;20021;-72
2020/12/07 16:34:33;;;;;;;2.75;0.55;;;4.90;86.10;;;;;;5058414;28;20112;-72
2020/12/07 16:36:59;;;;;;;1.70;0.50;;;4.90;84.70;;;;;;5058430;28;20108;-72
2020/12/07 16:39:27;;;;;;;2.90;1.10;;;4.90;87.50;;;;;;5058716;28;20048;-73
2020/12/07 16:41:56;;;;;;;2.30;0.73;;;4.90;90.30;;;;;;5058303;28;20060;-72
2020/12/07 16:44:21;;;;;;;5.60;1.90;;;4.90;88.70;;;;;;5058159;28;20036;-73
2020/12/07 16:46:47;;;;;;;1.35;0.50;;;4.80;89.40;;;;;;5058190;28;20021;-73
2020/12/07 16:49:13;;;;;;;1.98;0.80;;;4.60;87.90;;;;;;5058260;28;20029;-72
2020/12/07 16:51:39;;;;;;;1.48;0.70;;;4.40;88.20;;;;;;5058179;28;20033;-73
2020/12/07 16:54:05;;;;;;;1.85;0.80;;;4.30;87.70;;;;;;5058218;28;20044;-72
2020/12/07 16:56:33;;;;;;;1.77;0.68;;;4.30;88.20;;;;;;5058132;28;20421;-72
2020/12/07 16:59:03;;;;;;;1.40;0.82;;;4.20;90.50;;;;;;5058077;28;20146;-72
2020/12/07 17:01:29;;;;;;;1.63;0.90;;;4.20;90.90;;;;;;5058291;28;20017;-73
2020/12/07 17:03:54;;;;;;;1.65;0.52;;;4.10;91.00;;;;;;5057785;28;20067;-73
2020/12/07 17:06:22;;;;;;;0.73;0.43;;;3.90;91.10;;;;;;5057860;28;20045;-73
2020/12/07 17:08:50;;;;;;;1.55;0.60;;;3.90;92.30;;;;;;5058051;28;20100;-72
2020/12/07 17:11:17;;;;;;;0.85;0.50;;;3.80;92.70;;;;;;5057734;28;20020;-72
2020/12/07 17:13:43;;;;;;;1.33;0.50;;;3.80;91.70;;;;;;5057614;28;20359;-72
2020/12/07 17:16:08;;;;;;;0.80;0.50;;;3.80;91.50;;;;;;5057646;28;20036;-72
2020/12/07 17:18:34;;;;;;;0.90;0.40;;;3.70;91.50;;;;;;5057839;28;20025;-72
2020/12/07 17:21:00;;;;;;;0.52;0.20;;;3.60;92.00;;;;;;5056490;28;20036;-72
2020/12/07 17:23:26;;;;;;;1.33;0.38;;;3.60;92.40;;;;;;5056439;28;20127;-72
2020/12/07 17:25:52;;;;;;;0.82;0.15;;;3.60;92.80;;;;;;5056164;28;20057;-72
2020/12/07 17:28:18;;;;;;;1.38;0.40;;;3.70;91.90;;;;;;5057596;28;20025;-73
2020/12/07 17:30:44;;;;;;;3.30;1.13;;;3.70;91.80;;;;;;5057403;28;20028;-72
2020/12/07 17:33:09;;;;;;;0.50;0.20;;;3.70;91.40;;;;;;5056831;28;20028;-72
2020/12/07 17:35:35;;;;;;;0.40;0.20;;;3.70;92.50;;;;;;5057243;28;20029;-73
2020/12/07 17:38:04;;;;;;;0.80;0.20;;;3.70;92.40;;;;;;5057584;28;20409;-72
2020/12/07 17:40:34;;;;;;;0.30;0.10;;;3.80;92.50;;;;;;5057193;28;20109;-73
2020/12/07 17:43:00;;;;;;;0.00;0.00;;;3.70;92.20;;;;;;5057313;28;20103;-72
2020/12/07 17:45:26;;;;;;;0.32;0.10;;;3.80;91.50;;;;;;5056952;28;20342;-72
2020/12/07 17:47:51;;;;;;;0.15;0.10;;;3.60;92.10;;;;;;5056922;28;20063;-72
2020/12/07 17:50:17;;;;;;;0.10;0.10;;;3.50;92.70;;;;;;5057077;28;20029;-72
2020/12/07 17:52:43;;;;;;;0.13;0.03;;;3.50;92.80;;;;;;5057121;28;20427;-72
2020/12/07 17:55:10;;;;;;;0.68;0.10;;;3.40;93.00;;;;;;5055879;28;20066;-73
2020/12/07 17:57:39;;;;;;;0.10;0.10;;;3.40;93.60;;;;;;5057166;28;20055;-73
2020/12/07 18:00:05;;;;;;;0.00;0.00;;;3.40;93.80;;;;;;5039659;28;20033;-73
2020/12/07 18:02:33;;;;;;;0.10;0.10;;;3.40;93.70;;;;;;5057070;28;20324;-72
2020/12/07 18:04:58;;;;;;;0.32;0.10;;;3.50;93.50;;;;;;5056618;28;20029;-72
2020/12/07 18:07:26;;;;;;;0.10;0.08;;;3.50;93.40;;;;;;5056833;28;20017;-73
2020/12/07 18:09:54;;;;;;;0.20;0.10;;;3.50;93.30;;;;;;5056791;28;20045;-73
2020/12/07 18:12:20;;;;;;;0.28;0.20;;;3.60;93.10;;;;;;5056946;28;20096;-72
2020/12/07 18:14:48;;;;;;;0.10;0.00;;;3.70;92.00;;;;;;5056678;28;20173;-72
2020/12/07 18:17:14;;;;;;;0.30;0.10;;;3.80;92.90;;;;;;5056692;28;20029;-72
2020/12/07 18:19:41;;;;;;;0.30;0.10;;;3.80;92.10;;;;;;5056736;28;20082;-72
2020/12/07 18:22:09;;;;;;;0.32;0.25;;;3.80;92.10;;;;;;5055641;28;20081;-72
2020/12/07 18:24:34;;;;;;;0.20;0.10;;;3.80;92.10;;;;;;5065593;28;20048;-72
2020/12/07 18:27:01;;;;;;;0.57;0.13;;;3.70;91.90;;;;;;5076872;28;20024;-72
2020/12/07 18:29:27;;;;;;;1.05;0.30;;;3.80;91.70;;;;;;5077127;28;20025;-72
2020/12/07 18:31:53;;;;;;;0.40;0.10;;;3.80;91.70;;;;;;5076307;28;20020;-72
2020/12/07 18:34:20;;;;;;;0.40;0.10;;;3.90;91.60;;;;;;5076526;28;20025;-72
2020/12/07 18:36:47;;;;;;;0.30;0.20;;;3.90;92.00;;;;;;5076550;28;20095;-72
2020/12/07 18:39:13;;;;;;;1.45;0.50;;;4.00;92.00;;;;;;5076566;28;20103;-72
2020/12/07 18:41:39;;;;;;;0.80;0.30;;;4.10;92.20;;;;;;5076506;28;20060;-72
2020/12/07 18:44:06;;;;;;;1.10;0.20;;;4.10;92.70;;;;;;5076601;28;20029;-72
2020/12/07 18:46:33;;;;;;;1.10;0.30;;;4.20;91.30;;;;;;5079033;28;20017;-72
2020/12/07 18:48:59;;;;;;;1.02;0.30;;;4.30;92.00;;;;;;5080469;28;20020;-72
2020/12/07 18:51:26;;;;;;;0.45;0.20;;;4.30;91.70;;;;;;5080415;28;20444;-72
2020/12/07 18:53:55;;;;;;;0.88;0.20;;;4.30;91.90;;;;;;5062447;28;20139;-72
2020/12/07 18:56:23;;;;;;;2.10;0.38;;;4.30;93.30;;;;;;5080342;28;20063;-72
2020/12/07 18:58:54;;;;;;;0.85;0.40;;;4.30;92.90;;;;;;5080337;28;20053;-72
2020/12/07 19:01:20;;;;;;;1.15;0.30;;;4.20;93.20;;;;;;5080240;28;20442;-72
2020/12/07 19:03:47;;;;;;;3.33;0.30;;;4.20;92.70;;;;;;5062335;28;20332;-72
2020/12/07 19:06:14;;;;;;;1.55;0.30;;;4.10;92.00;;;;;;5062368;28;20017;-72
2020/12/07 19:08:40;;;;;;;1.23;0.40;;;3.90;92.20;;;;;;5080658;28;20312;-72
2020/12/07 19:11:07;;;;;;;0.35;0.20;;;3.80;92.10;;;;;;5080030;28;20419;-72
2020/12/07 19:13:33;;;;;;;1.27;0.43;;;3.60;92.70;;;;;;5079987;28;20325;-72
2020/12/07 19:15:59;;;;;;;0.50;0.20;;;3.50;92.90;;;;;;5079812;28;20028;-72
2020/12/07 19:18:27;;;;;;;3.50;0.35;;;3.50;92.90;;;;;;5062183;28;20028;-72
2020/12/07 19:20:53;;;;;;;1.05;0.40;;;3.40;93.30;;;;;;5079733;28;20016;-72
2020/12/07 19:23:18;;;;;;;0.40;0.20;;;3.30;93.50;;;;;;5079723;28;20078;-72
2020/12/07 19:25:45;;;;;;;0.93;0.50;;;3.30;93.60;;;;;;5079350;28;20052;-72
2020/12/07 19:28:11;;;;;;;1.92;0.40;;;3.30;93.20;;;;;;5079860;28;20082;-72
2020/12/07 19:30:37;;;;;;;1.30;0.30;;;3.20;93.50;;;;;;5061916;28;20021;-72
2020/12/07 19:33:03;;;;;;;1.05;0.30;;;3.20;93.20;;;;;;5080576;28;20036;-72
2020/12/07 19:35:31;;;;;;;0.63;0.30;;;3.10;93.30;;;;;;5079534;28;20070;-72
2020/12/07 19:37:56;;;;;;;0.98;0.20;;;3.10;93.60;;;;;;5079567;28;20051;-72
2020/12/07 19:40:22;;;;;;;1.05;0.20;;;3.10;93.80;;;;;;5079508;28;20048;-72
2020/12/07 19:42:48;;;;;;;1.63;0.30;;;3.00;94.60;;;;;;5079463;28;20020;-72
2020/12/07 19:45:14;;;;;;;1.10;0.32;;;3.00;95.10;;;;;;5061597;28;20435;-72
2020/12/07 19:47:41;;;;;;;0.30;0.20;;;3.00;94.40;;;;;;5079726;28;20020;-72
2020/12/07 19:50:08;;;;;;;0.65;0.10;;;3.00;94.40;;;;;;5079377;28;20020;-72
2020/12/07 19:52:37;;;;;;;0.50;0.20;;;2.90;94.90;;;;;;5079293;28;20073;-72
2020/12/07 19:55:07;;;;;;;3.10;0.40;;;2.90;94.60;;;;;;5061591;28;20107;-72
2020/12/07 19:57:34;;;;;;;0.85;0.20;;;2.90;94.30;;;;;;5060989;28;20036;-72
2020/12/07 20:00:00;;;;;;;0.30;0.13;;;3.00;94.10;;;;;;5079144;28;20028;-72
2020/12/07 20:02:29;;;;;;;0.63;0.20;;;3.00;94.00;;;;;;5079395;28;20104;-72
2020/12/07 20:04:55;;;;;;;0.60;0.20;;;3.00;94.20;;;;;;5078922;28;20030;-72
2020/12/07 20:07:21;;;;;;;0.43;0.20;;;3.00;94.80;;;;;;5079031;28;20479;-72
2020/12/07 20:09:47;;;;;;;0.47;0.10;;;3.10;95.00;;;;;;5078979;28;20044;-72
2020/12/07 20:12:13;;;;;;;0.80;0.52;;;3.20;95.30;;;;;;5078786;28;20334;-72
2020/12/07 20:14:40;;;;;;;1.15;0.20;;;3.20;95.20;;;;;;5078766;28;20032;-72
2020/12/07 20:17:07;;;;;;;0.50;0.13;;;3.40;95.00;;;;;;5061091;28;20116;-72
2020/12/07 20:19:33;;;;;;;2.70;0.30;;;3.40;94.90;;;;;;5078889;28;20044;-72
2020/12/07 20:21:59;;;;;;;0.80;0.20;;;3.40;94.60;;;;;;5078475;28;20419;-72
2020/12/07 20:24:24;;;;;;;0.65;0.17;;;3.50;94.50;;;;;;5078478;28;20056;-72
2020/12/07 20:26:50;;;;;;;1.70;0.30;;;3.50;94.60;;;;;;5078634;28;20032;-72
2020/12/07 20:29:17;;;;;;;0.52;0.20;;;3.50;94.20;;;;;;5078627;28;20051;-72
2020/12/07 20:31:43;;;;;;;1.50;0.28;;;3.50;93.60;;;;;;5078579;28;20029;-72
2020/12/07 20:34:10;;;;;;;1.50;0.63;;;3.40;93.40;;;;;;5078619;28;20029;-72
2020/12/07 20:36:36;;;;;;;1.42;0.30;;;3.40;93.30;;;;;;5060661;28;20020;-72
2020/12/07 20:39:02;;;;;;;1.23;0.35;;;3.30;93.50;;;;;;5078561;28;20365;-72
2020/12/07 20:41:28;;;;;;;2.00;0.25;;;3.30;93.20;;;;;;5078922;28;20036;-72
2020/12/07 20:43:53;;;;;;;0.77;0.30;;;3.20;93.40;;;;;;5078161;28;20434;-72
2020/12/07 20:46:19;;;;;;;1.27;0.30;;;3.10;93.20;;;;;;5060507;28;20109;-72
2020/12/07 20:48:45;;;;;;;1.77;0.32;;;3.10;93.70;;;;;;5078387;28;20028;-72
2020/12/07 20:51:11;;;;;;;1.10;0.28;;;3.10;93.80;;;;;;5060684;28;20035;-72
2020/12/07 20:53:37;;;;;;;0.50;0.20;;;3.10;92.50;;;;;;5078104;28;20111;-72
2020/12/07 20:56:06;;;;;;;0.95;0.25;;;3.10;93.00;;;;;;5078033;28;20057;-72
2020/12/07 20:58:32;;;;;;;1.38;0.32;;;3.10;93.10;;;;;;5078114;28;20066;-72
2020/12/07 21:01:01;;;;;;;1.02;0.30;;;3.10;93.30;;;;;;5060249;28;20021;-72
2020/12/07 21:03:29;;;;;;;1.40;0.47;;;3.20;93.80;;;;;;5077841;28;20025;-72
2020/12/07 21:05:55;;;;;;;1.25;0.20;;;3.20;93.90;;;;;;5060044;28;20412;-72
2020/12/07 21:08:21;;;;;;;0.57;0.45;;;3.30;94.10;;;;;;5077046;28;20025;-72
2020/12/07 21:10:49;;;;;;;0.90;0.45;;;3.50;94.10;;;;;;5077717;28;20371;-73
2020/12/07 21:13:14;;;;;;;1.40;0.40;;;3.60;94.30;;;;;;5077685;28;20032;-72
2020/12/07 21:15:40;;;;;;;0.60;0.32;;;3.70;93.90;;;;;;5059843;28;20332;-72
2020/12/07 21:18:06;;;;;;;1.25;0.50;;;3.70;93.70;;;;;;5077601;28;20036;-72
2020/12/07 21:20:31;;;;;;;1.00;0.40;;;3.70;93.80;;;;;;5059886;28;20032;-72
2020/12/07 21:22:57;;;;;;;0.77;0.30;;;3.70;94.00;;;;;;5077486;28;20434;-72
2020/12/07 21:25:23;;;;;;;2.13;0.47;;;3.70;93.80;;;;;;5077221;28;20063;-72
2020/12/07 21:27:48;;;;;;;3.20;0.40;;;3.80;93.30;;;;;;5077774;28;20069;-72
2020/12/07 21:30:14;;;;;;;0.90;0.35;;;3.70;92.30;;;;;;5076339;28;20094;-72
2020/12/07 21:32:43;;;;;;;1.15;0.30;;;3.70;92.20;;;;;;5077336;28;20031;-72
2020/12/07 21:35:10;;;;;;;0.80;0.30;;;3.60;92.10;;;;;;5077515;28;20021;-72
2020/12/07 21:37:35;;;;;;;0.93;0.40;;;3.50;92.20;;;;;;5077372;28;20300;-72
2020/12/07 21:40:01;;;;;;;1.23;0.30;;;3.40;91.90;;;;;;5077223;28;20035;-72
2020/12/07 21:42:27;;;;;;;0.80;0.30;;;3.30;92.20;;;;;;5059431;28;20028;-72
2020/12/07 21:44:54;;;;;;;0.57;0.30;;;3.20;92.50;;;;;;5059324;28;20366;-72
2020/12/07 21:47:20;;;;;;;1.58;0.22;;;3.10;91.40;;;;;;5077139;28;20025;-73
2020/12/07 21:49:46;;;;;;;2.03;0.50;;;3.10;92.50;;;;;;5077031;28;20399;-72
2020/12/07 21:52:11;;;;;;;1.00;0.38;;;3.00;93.10;;;;;;5059357;28;20108;-72
2020/12/07 21:54:37;;;;;;;0.70;0.30;;;3.00;93.40;;;;;;5077234;28;20036;-72
2020/12/07 21:57:03;;;;;;;0.70;0.30;;;3.00;93.40;;;;;;5059273;28;20336;-72
2020/12/07 21:59:29;;;;;;;2.38;0.57;;;2.90;93.60;;;;;;5077214;28;20416;-72
2020/12/07 22:01:55;;;;;;;3.08;0.70;;;2.90;93.90;;;;;;5076746;28;20035;-72
2020/12/07 22:04:20;;;;;;;1.63;0.60;;;2.90;93.60;;;;;;5076660;28;20029;-72
2020/12/07 22:06:46;;;;;;;1.25;0.20;;;2.90;93.50;;;;;;5075953;28;20066;-72
2020/12/07 22:09:12;;;;;;;0.70;0.30;;;2.90;93.00;;;;;;5087100;28;20027;-72
2020/12/07 22:11:40;;;;;;;1.52;0.30;;;2.90;93.00;;;;;;5096987;28;20016;-73
2020/12/07 22:14:09;;;;;;;2.10;1.10;;;2.80;93.30;;;;;;5096875;28;20115;-72
2020/12/07 22:16:37;;;;;;;2.53;1.50;;;2.70;93.30;;;;;;5096920;28;20031;-72
2020/12/07 22:19:03;;;;;;;2.40;1.30;;;2.70;93.90;;;;;;5096943;28;20047;-72
2020/12/07 22:21:28;;;;;;;2.28;1.02;;;2.70;94.10;;;;;;5096859;28;20024;-72
2020/12/07 22:23:54;;;;;;;1.30;0.52;;;2.80;94.00;;;;;;5096510;28;20378;-73
2020/12/07 22:26:21;;;;;;;0.30;0.15;;;2.90;94.10;;;;;;5078997;28;20343;-72
2020/12/07 22:28:47;;;;;;;0.47;0.28;;;2.90;94.30;;;;;;5096905;28;20046;-72
2020/12/07 22:31:13;;;;;;;1.48;0.20;;;3.00;94.20;;;;;;5096845;28;20463;-72
2020/12/07 22:33:38;;;;;;;0.57;0.28;;;3.00;94.20;;;;;;5096698;28;20043;-72
2020/12/07 22:36:04;;;;;;;1.00;0.22;;;3.00;93.70;;;;;;5096762;28;20412;-72
2020/12/07 22:38:29;;;;;;;1.05;0.22;;;3.00;93.60;;;;;;5078929;28;20025;-72
2020/12/07 22:40:55;;;;;;;0.40;0.20;;;3.10;93.00;;;;;;5096683;28;20524;-73
2020/12/07 22:43:21;;;;;;;0.85;0.30;;;3.10;93.30;;;;;;5096563;28;20476;-72
2020/12/07 22:45:46;;;;;;;0.85;0.25;;;3.10;93.60;;;;;;5096554;28;20032;-72
2020/12/07 22:48:12;;;;;;;0.30;0.13;;;3.20;93.00;;;;;;5096798;28;20019;-73
2020/12/07 22:50:39;;;;;;;1.27;0.30;;;3.30;92.20;;;;;;5097190;28;20024;-73
2020/12/07 22:53:05;;;;;;;0.95;0.20;;;3.40;91.80;;;;;;5078583;28;20024;-72
2020/12/07 22:55:30;;;;;;;0.40;0.20;;;3.50;91.50;;;;;;5096514;28;20439;-72
2020/12/07 22:57:56;;;;;;;0.75;0.20;;;3.50;91.30;;;;;;5078698;28;20386;-73
2020/12/07 23:00:31;;;;;;;0.45;0.20;;;3.60;90.60;;;;;;5096545;28;20327;-73
2020/12/07 23:02:57;;;;;;;1.45;0.30;;;3.60;90.50;;;;;;5096618;28;20031;-72
2020/12/07 23:05:24;;;;;;;0.70;0.30;;;3.60;90.20;;;;;;5096413;28;20411;-72
2020/12/07 23:07:49;;;;;;;2.80;0.55;;;3.60;89.90;;;;;;5096484;28;20092;-72
2020/12/07 23:10:15;;;;;;;0.55;0.20;;;3.60;90.10;;;;;;5096449;28;20052;-72
2020/12/07 23:12:41;;;;;;;0.75;0.20;;;3.60;90.10;;;;;;5096432;28;20046;-72
2020/12/07 23:15:07;;;;;;;0.65;0.20;;;3.60;90.50;;;;;;5096298;28;20035;-72
2020/12/07 23:17:32;;;;;;;3.35;0.38;;;3.60;89.80;;;;;;5096447;28;20477;-72
2020/12/07 23:19:58;;;;;;;1.02;0.20;;;3.70;89.20;;;;;;5096379;28;20028;-72
2020/12/07 23:22:23;;;;;;;0.77;0.20;;;3.90;89.40;;;;;;5096312;28;20472;-72
2020/12/07 23:24:49;;;;;;;2.00;0.40;;;4.00;88.80;;;;;;5096188;28;20114;-73
2020/12/07 23:27:15;;;;;;;3.30;0.30;;;4.00;88.60;;;;;;5096256;28;20449;-72
2020/12/07 23:29:41;;;;;;;1.10;0.22;;;4.10;88.40;;;;;;5096628;28;20307;-72
2020/12/07 23:32:11;;;;;;;0.80;0.50;;;4.10;89.00;;;;;;5097991;28;20028;-72
2020/12/07 23:34:37;;;;;;;0.60;0.20;;;4.00;87.70;;;;;;5099882;28;20476;-72
2020/12/07 23:37:05;;;;;;;2.22;0.40;;;4.00;89.10;;;;;;5099894;28;20020;-72
2020/12/07 23:39:30;;;;;;;0.55;0.20;;;4.00;89.50;;;;;;5100567;28;20319;-72
2020/12/07 23:42:00;;;;;;;2.03;0.40;;;3.90;89.80;;;;;;5099749;28;20028;-72
2020/12/07 23:44:26;;;;;;;1.75;0.40;;;3.80;89.50;;;;;;5100437;28;20362;-72
2020/12/07 23:46:59;;;;;;;1.45;0.30;;;3.70;87.90;;;;;;5099680;28;20026;-72
2020/12/07 23:49:26;;;;;;;2.92;0.45;;;3.80;88.80;;;;;;5099758;28;20028;-72
2020/12/07 23:51:52;;;;;;;1.20;0.30;;;3.80;89.30;;;;;;5099599;28;20019;-72
2020/12/07 23:54:19;;;;;;;1.35;0.20;;;3.70;89.70;;;;;;5099708;28;20028;-72
2020/12/07 23:56:44;;;;;;;0.68;0.20;;;3.60;91.00;;;;;;5099546;28;20102;-72